Terminal Aerodrome Forecast
Issued by NWS

Home | Current Version | Previous Version | Text Only | Print | Product List | Glossary Off
Versions: 1 2 3 4 5 6 7 8 9 10 11 12 13 14 15 16

000
FTUS43 KIWX 271100
TAFSBN
TAF
KSBN 271120Z 2712/2812 02005KT 6SM BR SCT025 BKN100
     FM271400 34010KT P6SM SCT030 BKN100
     FM280100 04003KT P6SM SCT150=

USA.gov is the U.S. government's official web portal to all federal, state and local government web resources and services.